logo
Search for airport 
image banner adimage banner adimage banner ad
image banner ad

MZCK - Caye Caulker Airstrip

Located in Caye Caulker, Belize

ICAO - , IATA - CUK

Data provided by Airmate  

General information

Coordinates: N17°44'6" W88°1'57"
Elevation is 7 feet MSL.
 
View others Airports in Belize District

Operational data

Special qualification required
Current time UTC:
Current local time:
TAF: TAF MZBZ 251610Z 2518/2618 09007KT 9999 SCT022 TEMPO 2518/2524 5000 SHRA BKN014 PROB30 TEMPO 2518/2522 4000 TSRA FEW010CB SCT014 PROB40 TEMPO 2608/2618 10015G25KT 3000 TSRA SCT010CB SCT014 BKN045
View NOTAMs / SUP AIP / TFR affecting this airport [VIEW]
Communications frequencies: [VIEW]

Runways:

RWY identifierQFULength (ft)Width (ft)SurfaceLDA (ft)
09285040UNK
27285040UNK

Airport contact information

Address: Caye Caulker Belize

Satellite view of MZCK